Terminal Aerodrome Forecast
Issued by NWS Greer, SC

Home | Current Version | Previous Version | Text Only | Print | Product List | Glossary On
Versions: 1 2 3 4 5 6 7 8 9 10 11 12 13 14
000
FTUS42 KGSP 271121
TAFAVL
TAF
KAVL 271121Z 2712/2812 00000KT 3SM BR SCT002 BKN040
      TEMPO 2712/2713 1SM BR BKN002 OVC040
     FM271400 20004KT P6SM FEW020 BKN060
     FM271600 18007KT P6SM VCTS BKN050CB PROB30 2721/2801 4SM -TSRA
      OVC035CB
     FM280400 VRB02KT P6SM SCT050
     FM280700 00000KT 3SM BR SCT010
     FM280900 VRB02KT 1SM BR BKN005=

USA.gov is the U.S. government's official web portal to all federal, state and local government web resources and services.